Terminal Aerodrome Forecast
Issued by NWS Tulsa, OK

Home | Current Version | Previous Version | Text Only | Print | Product List | Glossary On
Versions: 1 2 3 4 5 6 7 8 9 10 11 12
000
FTUS44 KTSA 251120
TAFTUL
TAF
KTUL 251120Z 2512/2612 14006KT P6SM BKN250
     FM251500 17010KT P6SM BKN250
     FM251700 16011G18KT P6SM SCT050 BKN250
     FM260100 13007KT P6SM SCT040 BKN150
     FM260900 30005KT P6SM VCSH BKN050 OVC100=

USA.gov is the U.S. government's official web portal to all federal, state and local government web resources and services.